Time;durP1;ratioP1;P1;durP2;ratioP2;P2;SDS_P1;SDS_P2;PMS_P1;PMS_P2;Temp;Humidity;BMP_temperature;BMP_pressure;BME280_temperature;BME280_humidity;BME280_pressure;Samples;Min_cycle;Max_cycle;Signal;HPM_P1;HPM_P2
2023/01/27 00:01:04;;;;;;;2.80;1.00;;;18.40;44.50;;;;;;6129958;23;20216;-84
2023/01/27 00:03:29;;;;;;;1.63;0.90;;;18.40;44.60;;;;;;6130166;23;20207;-83
2023/01/27 00:05:56;;;;;;;2.15;0.95;;;18.40;44.60;;;;;;6130168;23;20159;-83
2023/01/27 00:08:21;;;;;;;2.60;1.00;;;18.30;44.60;;;;;;6105851;23;20171;-84
2023/01/27 00:13:25;;;;;;;4.40;0.90;;;18.30;44.60;;;;;;6129882;23;20151;-85
2023/01/27 00:13:32;;;;;;;2.08;0.98;;;18.30;44.70;;;;;;6155476;23;20697;-84
2023/01/27 00:15:58;;;;;;;1.73;1.25;;;18.30;44.70;;;;;;6129832;23;20167;-82
2023/01/27 00:18:25;;;;;;;5.07;1.23;;;18.30;44.60;;;;;;6130443;23;20143;-84
2023/01/27 00:26:14;;;;;;;3.10;1.10;;;18.40;45.30;;;;;;6133086;23;20132;-85
2023/01/27 00:28:40;;;;;;;2.22;0.98;;;18.30;44.60;;;;;;6105804;23;20167;-84
2023/01/27 00:33:54;;;;;;;3.40;1.10;;;18.30;44.70;;;;;;6113908;23;20131;-84
2023/01/27 00:36:20;;;;;;;3.08;0.93;;;18.30;44.70;;;;;;6082406;23;20143;-84
2023/01/27 00:38:46;;;;;;;5.35;1.13;;;18.20;44.80;;;;;;6081338;23;20151;-83
2023/01/27 00:41:18;;;;;;;5.88;1.20;;;18.20;45.50;;;;;;6105835;23;20206;-83
2023/01/27 00:43:44;;;;;;;5.05;1.20;;;18.30;44.90;;;;;;6108403;23;20155;-83
2023/01/27 00:46:11;;;;;;;4.43;1.10;;;18.20;44.90;;;;;;6107485;23;20143;-83
2023/01/27 00:48:37;;;;;;;2.95;0.90;;;18.20;44.90;;;;;;6107361;23;20139;-83
2023/01/27 00:51:02;;;;;;;2.97;0.98;;;18.20;44.90;;;;;;6131218;23;20148;-83
2023/01/27 00:53:28;;;;;;;1.63;0.90;;;18.20;44.90;;;;;;6083467;23;20159;-84
2023/01/27 00:55:54;;;;;;;3.10;1.08;;;18.30;44.90;;;;;;6083254;23;20245;-84
2023/01/27 00:58:21;;;;;;;3.22;0.90;;;18.30;44.90;;;;;;6157469;23;20132;-84
2023/01/27 01:00:46;;;;;;;1.95;1.00;;;18.30;44.90;;;;;;6107154;23;20571;-84
2023/01/27 01:03:12;;;;;;;1.95;0.82;;;18.30;44.90;;;;;;6131297;23;20142;-84
2023/01/27 01:05:38;;;;;;;1.65;0.85;;;18.20;44.90;;;;;;6106905;23;20187;-83
2023/01/27 01:08:03;;;;;;;3.58;0.90;;;18.20;44.90;;;;;;6106908;23;20183;-83
2023/01/27 01:10:29;;;;;;;1.17;0.85;;;18.30;45.00;;;;;;6131343;23;20469;-84
2023/01/27 01:12:55;;;;;;;3.22;0.95;;;18.30;44.90;;;;;;6106702;23;20163;-83
2023/01/27 01:15:20;;;;;;;3.00;0.82;;;18.20;44.90;;;;;;6107203;23;20143;-83
2023/01/27 01:17:46;;;;;;;1.52;0.90;;;18.30;45.00;;;;;;6131264;23;20187;-82
2023/01/27 01:20:12;;;;;;;5.82;1.10;;;18.20;44.90;;;;;;6131248;23;20207;-83
2023/01/27 01:22:38;;;;;;;2.42;0.80;;;18.30;45.00;;;;;;6157237;23;20218;-84
2023/01/27 01:25:04;;;;;;;4.53;1.10;;;18.20;44.90;;;;;;6107096;23;20605;-83
2023/01/27 01:27:29;;;;;;;2.35;0.90;;;18.10;45.00;;;;;;6131412;23;20247;-84
2023/01/27 01:29:55;;;;;;;2.22;1.08;;;18.20;45.00;;;;;;6106624;23;20167;-82
2023/01/27 01:32:21;;;;;;;2.15;0.95;;;18.20;45.00;;;;;;6106740;23;20195;-84
2023/01/27 01:34:46;;;;;;;1.17;0.85;;;18.20;45.00;;;;;;6106934;23;20158;-83
2023/01/27 01:37:12;;;;;;;2.22;0.90;;;18.10;45.10;;;;;;6131125;23;20187;-84
2023/01/27 01:39:38;;;;;;;2.13;0.70;;;18.20;45.30;;;;;;6106813;23;20153;-84
2023/01/27 01:42:03;;;;;;;2.33;0.75;;;18.10;45.30;;;;;;6130983;23;20518;-84
2023/01/27 01:44:30;;;;;;;2.40;0.90;;;18.10;45.30;;;;;;6106789;23;20174;-84
2023/01/27 01:46:55;;;;;;;2.22;0.80;;;18.10;45.30;;;;;;6107011;23;20170;-84
2023/01/27 01:49:23;;;;;;;2.10;0.70;;;18.10;45.40;;;;;;6106586;23;20143;-84
2023/01/27 01:51:51;;;;;;;2.47;0.93;;;18.10;45.30;;;;;;6106914;23;20265;-84
2023/01/27 01:54:22;;;;;;;1.38;0.93;;;18.10;45.30;;;;;;6106279;23;20158;-85
2023/01/27 01:56:53;;;;;;;3.78;0.85;;;18.10;45.30;;;;;;6083470;23;20237;-83
2023/01/27 01:59:30;;;;;;;1.27;0.73;;;18.10;45.30;;;;;;6107687;23;20230;-84
2023/01/27 02:01:56;;;;;;;5.47;1.15;;;18.10;45.30;;;;;;6107019;23;20135;-85
2023/01/27 02:04:24;;;;;;;3.10;0.82;;;18.10;45.30;;;;;;6107059;23;20140;-84
2023/01/27 02:07:08;;;;;;;2.92;1.10;;;18.10;45.30;;;;;;6106906;23;20178;-85
2023/01/27 02:09:34;;;;;;;1.98;0.90;;;18.10;45.30;;;;;;6106598;23;20155;-83
2023/01/27 02:11:59;;;;;;;3.25;0.77;;;18.10;45.30;;;;;;6106159;23;20572;-84
2023/01/27 02:14:25;;;;;;;2.13;0.85;;;18.10;45.30;;;;;;6130407;23;20194;-85
2023/01/27 02:16:51;;;;;;;3.00;0.98;;;18.10;45.30;;;;;;6130740;23;20153;-83
2023/01/27 02:19:40;;;;;;;3.80;0.98;;;18.10;45.30;;;;;;6106463;23;20510;-83
2023/01/27 02:22:06;;;;;;;1.65;0.90;;;18.10;45.30;;;;;;6106621;23;20486;-84
2023/01/27 02:24:35;;;;;;;2.20;0.80;;;18.10;45.40;;;;;;6106374;23;20593;-85
2023/01/27 02:27:00;;;;;;;1.60;0.93;;;18.10;45.40;;;;;;6130956;23;20142;-85
2023/01/27 02:29:27;;;;;;;4.50;0.90;;;18.10;45.40;;;;;;6130611;23;20475;-83
2023/01/27 02:31:54;;;;;;;2.60;0.90;;;18.00;45.40;;;;;;6106556;23;20595;-82
2023/01/27 02:34:21;;;;;;;3.33;0.90;;;18.10;45.40;;;;;;6130342;23;20147;-84
2023/01/27 02:36:53;;;;;;;1.20;0.85;;;18.10;45.40;;;;;;6106856;23;20563;-86
2023/01/27 02:39:21;;;;;;;3.15;1.00;;;18.10;45.40;;;;;;6106344;23;20582;-84
2023/01/27 02:41:51;;;;;;;1.88;0.70;;;18.10;45.40;;;;;;6082421;23;20230;-83
2023/01/27 02:44:17;;;;;;;1.70;0.80;;;18.10;45.40;;;;;;6106318;23;20139;-83
2023/01/27 02:46:43;;;;;;;1.88;0.98;;;18.10;45.50;;;;;;6130346;23;20152;-84
2023/01/27 02:49:08;;;;;;;2.05;0.88;;;18.00;45.50;;;;;;6082068;23;20205;-83
2023/01/27 02:51:34;;;;;;;2.00;0.98;;;18.00;45.40;;;;;;6105759;23;20257;-83
2023/01/27 02:54:00;;;;;;;2.70;0.90;;;18.00;45.50;;;;;;6130493;23;20135;-83
2023/01/27 02:56:26;;;;;;;1.80;0.90;;;18.00;45.50;;;;;;6105992;23;20234;-83
2023/01/27 02:58:52;;;;;;;4.40;1.00;;;17.90;45.50;;;;;;6130796;23;20482;-84
2023/01/27 03:01:18;;;;;;;3.72;0.80;;;18.00;45.50;;;;;;6106081;23;20570;-84
2023/01/27 03:03:45;;;;;;;1.58;0.80;;;18.00;45.60;;;;;;6081684;23;20154;-82
2023/01/27 03:06:13;;;;;;;0.95;0.70;;;18.00;45.60;;;;;;6130631;23;20128;-84
2023/01/27 03:08:39;;;;;;;3.35;1.00;;;18.00;45.60;;;;;;6106103;23;20182;-84
2023/01/27 03:11:05;;;;;;;4.28;0.80;;;18.00;45.70;;;;;;6081767;23;20202;-83
2023/01/27 03:13:30;;;;;;;2.45;0.90;;;18.00;45.70;;;;;;6130310;23;20562;-82
2023/01/27 03:18:46;;;;;;;3.00;0.82;;;18.00;45.70;;;;;;6112948;23;20132;-83
2023/01/27 03:21:12;;;;;;;2.30;0.88;;;18.00;45.70;;;;;;6107061;23;20159;-84
2023/01/27 03:23:37;;;;;;;2.60;0.73;;;17.90;45.60;;;;;;6105996;23;20132;-83
2023/01/27 03:26:05;;;;;;;2.03;0.90;;;18.00;45.70;;;;;;6105789;23;20463;-83
2023/01/27 03:28:31;;;;;;;1.67;0.80;;;17.90;45.70;;;;;;6081615;23;20162;-83
2023/01/27 03:30:59;;;;;;;2.42;0.80;;;17.90;45.70;;;;;;6105737;23;20218;-83
2023/01/27 03:33:25;;;;;;;2.53;1.00;;;18.00;45.80;;;;;;6081889;23;20189;-83
2023/01/27 03:46:31;;;;;;;1.80;0.90;;;17.90;45.90;;;;;;6111575;23;20137;-84
2023/01/27 03:48:58;;;;;;;1.98;0.88;;;17.90;45.90;;;;;;6106048;23;20242;-83
2023/01/27 03:51:24;;;;;;;1.58;1.00;;;17.90;45.90;;;;;;6130249;23;20135;-84
2023/01/27 03:53:50;;;;;;;0.95;0.60;;;17.90;45.90;;;;;;6081585;23;20151;-83
2023/01/27 03:56:16;;;;;;;2.22;0.90;;;17.90;46.00;;;;;;6105691;23;20308;-83
2023/01/27 03:58:42;;;;;;;1.23;0.80;;;17.80;45.90;;;;;;6130126;23;20175;-87
2023/01/27 04:01:17;;;;;;;0.93;0.80;;;17.80;45.90;;;;;;6105657;23;20563;-82
2023/01/27 04:09:01;;;;;;;1.25;0.80;;;17.80;46.00;;;;;;6155852;23;20142;-84
2023/01/27 04:14:11;;;;;;;3.05;0.95;;;17.80;46.00;;;;;;6113266;23;20242;-85
2023/01/27 04:16:37;;;;;;;2.30;0.90;;;17.80;46.10;;;;;;6106031;23;20148;-84
2023/01/27 04:19:05;;;;;;;2.67;0.98;;;17.80;46.10;;;;;;6107479;23;20623;-85
2023/01/27 04:21:30;;;;;;;3.33;0.80;;;17.80;46.10;;;;;;6107589;23;20135;-83
2023/01/27 04:23:56;;;;;;;2.92;1.13;;;17.80;46.00;;;;;;6132003;23;20136;-83
2023/01/27 04:26:22;;;;;;;3.05;0.98;;;17.80;46.00;;;;;;6107876;23;20136;-83
2023/01/27 04:28:48;;;;;;;1.60;0.75;;;17.80;46.00;;;;;;6083561;23;20230;-84
2023/01/27 04:31:14;;;;;;;0.98;0.70;;;17.80;46.00;;;;;;6131618;23;20131;-85
2023/01/27 04:33:41;;;;;;;1.50;0.88;;;17.80;46.00;;;;;;6107693;23;20131;-84
2023/01/27 04:36:07;;;;;;;2.40;0.95;;;17.80;46.00;;;;;;6083475;23;20147;-84
2023/01/27 04:38:33;;;;;;;1.52;0.80;;;17.80;46.00;;;;;;6131856;23;20136;-84
2023/01/27 04:40:58;;;;;;;2.13;0.82;;;17.80;46.00;;;;;;6131946;23;20567;-83
2023/01/27 04:43:25;;;;;;;3.08;0.98;;;17.80;46.00;;;;;;6107286;23;20155;-84
2023/01/27 04:45:51;;;;;;;1.50;0.88;;;17.80;46.10;;;;;;6107195;23;20170;-83
2023/01/27 04:48:16;;;;;;;1.95;0.88;;;17.80;46.10;;;;;;6107426;23;20151;-83
2023/01/27 04:50:42;;;;;;;1.75;0.70;;;17.80;46.10;;;;;;6131768;23;20154;-83
2023/01/27 04:53:08;;;;;;;1.95;0.77;;;17.80;46.10;;;;;;6131548;23;20547;-85
2023/01/27 04:55:33;;;;;;;1.45;0.80;;;17.80;46.10;;;;;;6131561;23;20519;-84
2023/01/27 04:57:59;;;;;;;1.73;0.70;;;17.80;46.80;;;;;;6082867;23;20226;-85
2023/01/27 05:00:25;;;;;;;1.23;0.82;;;17.80;46.20;;;;;;6107346;23;20162;-84
2023/01/27 05:02:51;;;;;;;2.03;0.63;;;17.70;46.10;;;;;;6107080;23;20571;-83
2023/01/27 05:05:16;;;;;;;2.08;0.98;;;17.80;46.10;;;;;;6107134;23;20241;-85
2023/01/27 05:07:42;;;;;;;3.30;1.00;;;17.80;46.10;;;;;;6106968;23;20574;-83
2023/01/27 05:10:08;;;;;;;1.20;0.90;;;17.70;46.10;;;;;;6131699;23;20140;-84
2023/01/27 05:12:34;;;;;;;2.20;1.00;;;17.70;46.20;;;;;;6107339;23;20287;-85
2023/01/27 05:15:00;;;;;;;3.38;1.00;;;17.80;46.20;;;;;;6106660;23;20230;-84
2023/01/27 05:17:30;;;;;;;2.85;0.90;;;17.80;46.20;;;;;;6131346;23;20139;-82
2023/01/27 05:19:56;;;;;;;2.30;0.80;;;17.70;46.20;;;;;;6107075;23;20174;-84
2023/01/27 05:22:21;;;;;;;1.95;0.75;;;17.80;46.20;;;;;;6106904;23;20494;-84
2023/01/27 05:24:47;;;;;;;1.50;0.95;;;17.80;46.20;;;;;;6131065;23;20163;-84
2023/01/27 05:27:12;;;;;;;3.17;0.90;;;17.80;46.20;;;;;;6082927;23;20635;-83
2023/01/27 05:29:39;;;;;;;2.30;0.73;;;17.80;46.20;;;;;;6082802;23;20148;-83
2023/01/27 05:32:04;;;;;;;2.13;0.88;;;17.70;46.20;;;;;;6106896;23;20198;-84
2023/01/27 05:34:30;;;;;;;3.72;0.98;;;17.70;46.20;;;;;;6106852;23;20199;-85
2023/01/27 05:36:56;;;;;;;1.00;0.70;;;17.70;46.20;;;;;;6106757;23;20132;-83
2023/01/27 05:39:21;;;;;;;1.50;0.70;;;17.70;46.20;;;;;;6131164;23;20459;-85
2023/01/27 05:41:47;;;;;;;1.60;1.00;;;17.80;46.20;;;;;;6131041;23;20452;-85
2023/01/27 05:44:13;;;;;;;2.50;0.93;;;17.70;46.30;;;;;;6082996;23;20147;-84
2023/01/27 05:46:39;;;;;;;1.13;0.73;;;17.70;46.20;;;;;;6106479;23;20159;-83
2023/01/27 05:49:05;;;;;;;1.65;0.60;;;17.70;46.20;;;;;;6106624;23;20559;-84
2023/01/27 05:51:35;;;;;;;1.45;0.70;;;17.80;46.30;;;;;;6131000;23;20174;-83
2023/01/27 05:54:01;;;;;;;1.70;0.73;;;17.70;46.30;;;;;;6107056;23;20184;-82
2023/01/27 05:56:27;;;;;;;3.58;0.90;;;17.70;46.30;;;;;;6106402;23;20559;-82
2023/01/27 05:58:54;;;;;;;2.22;1.10;;;17.70;46.20;;;;;;6106595;23;20571;-83
2023/01/27 06:01:21;;;;;;;2.47;1.02;;;17.70;46.30;;;;;;6082527;23;20519;-83
2023/01/27 06:03:47;;;;;;;1.05;0.75;;;17.80;46.30;;;;;;6106320;23;20148;-82
2023/01/27 06:06:14;;;;;;;2.88;0.80;;;17.70;46.30;;;;;;6082807;23;20523;-83
2023/01/27 06:08:40;;;;;;;2.25;0.77;;;17.70;46.30;;;;;;6106538;23;20151;-81
2023/01/27 06:11:06;;;;;;;1.48;0.82;;;17.70;46.30;;;;;;6156887;23;20182;-84
2023/01/27 06:13:34;;;;;;;2.63;1.00;;;17.70;46.30;;;;;;6130382;23;20195;-83
2023/01/27 06:16:00;;;;;;;1.23;0.75;;;17.70;46.30;;;;;;6131691;23;20151;-83
2023/01/27 06:18:26;;;;;;;2.10;0.80;;;17.80;46.30;;;;;;6130906;23;20507;-82
2023/01/27 06:20:52;;;;;;;1.75;0.85;;;17.60;46.90;;;;;;6130550;23;20151;-82
2023/01/27 06:23:17;;;;;;;1.40;0.80;;;17.70;46.30;;;;;;6130717;23;20514;-81
2023/01/27 06:25:46;;;;;;;1.05;0.73;;;17.70;46.20;;;;;;6082203;23;20151;-85
2023/01/27 06:28:12;;;;;;;5.10;0.85;;;17.80;46.20;;;;;;6130702;23;20142;-85
2023/01/27 06:30:37;;;;;;;3.60;1.30;;;17.80;46.20;;;;;;6130961;23;20135;-83
2023/01/27 06:33:03;;;;;;;2.92;0.90;;;17.80;46.20;;;;;;6130848;23;20171;-83
2023/01/27 06:35:29;;;;;;;5.07;0.73;;;17.70;46.20;;;;;;6131395;23;20475;-83
2023/01/27 06:37:57;;;;;;;3.58;0.90;;;17.70;46.20;;;;;;6106653;23;20464;-82
2023/01/27 06:40:25;;;;;;;1.48;0.80;;;17.70;46.20;;;;;;6082164;23;20152;-83
2023/01/27 06:42:50;;;;;;;1.17;0.80;;;17.80;46.20;;;;;;6106961;23;20239;-83
2023/01/27 06:45:16;;;;;;;1.17;0.90;;;17.70;46.20;;;;;;6156734;23;20465;-83
2023/01/27 06:47:42;;;;;;;1.20;0.75;;;17.80;46.20;;;;;;6130442;23;20159;-85
2023/01/27 06:50:08;;;;;;;3.22;0.85;;;17.80;46.20;;;;;;6106147;23;20536;-84
2023/01/27 06:52:34;;;;;;;3.25;0.95;;;17.80;46.20;;;;;;6130963;23;20472;-82
2023/01/27 06:55:00;;;;;;;2.47;0.80;;;17.80;46.20;;;;;;6106264;23;20153;-83
2023/01/27 06:57:25;;;;;;;2.63;0.88;;;17.80;46.20;;;;;;6106418;23;20214;-83
2023/01/27 06:59:51;;;;;;;1.77;0.80;;;17.80;46.20;;;;;;6130942;23;20163;-83
2023/01/27 07:02:17;;;;;;;3.47;0.70;;;17.80;46.30;;;;;;6156686;23;20226;-84
2023/01/27 07:04:42;;;;;;;2.53;0.82;;;17.80;46.20;;;;;;6082332;23;20176;-83
2023/01/27 07:07:08;;;;;;;4.95;1.33;;;17.80;46.20;;;;;;6130671;23;20144;-84
2023/01/27 07:09:34;;;;;;;1.65;0.88;;;17.80;46.20;;;;;;6106167;23;20155;-82
2023/01/27 07:11:59;;;;;;;1.52;0.80;;;17.80;46.20;;;;;;6106033;23;20164;-82
2023/01/27 07:14:25;;;;;;;2.13;0.80;;;17.80;46.20;;;;;;6105936;23;20226;-83
2023/01/27 07:16:51;;;;;;;1.85;0.70;;;17.80;46.20;;;;;;6106145;23;20467;-84
2023/01/27 07:19:16;;;;;;;2.25;0.90;;;17.80;46.10;;;;;;6156452;23;20136;-84
2023/01/27 07:21:42;;;;;;;1.92;0.80;;;17.80;46.20;;;;;;6130779;23;20143;-83
2023/01/27 07:24:08;;;;;;;2.72;0.70;;;17.80;46.20;;;;;;6106358;23;20460;-83
2023/01/27 07:26:34;;;;;;;3.67;0.90;;;17.80;46.10;;;;;;6105983;23;20142;-82
2023/01/27 07:28:59;;;;;;;1.85;0.85;;;17.80;46.10;;;;;;6082132;23;20158;-82
2023/01/27 07:31:25;;;;;;;2.10;0.90;;;17.80;45.90;;;;;;6105771;23;20503;-84
2023/01/27 07:33:52;;;;;;;1.27;0.70;;;17.90;45.60;;;;;;6105885;23;20158;-82
2023/01/27 07:36:18;;;;;;;2.15;0.90;;;18.00;45.60;;;;;;6130713;23;20123;-82
2023/01/27 07:38:48;;;;;;;3.60;0.82;;;18.10;45.60;;;;;;6131375;23;20211;-82
2023/01/27 07:41:13;;;;;;;1.20;0.70;;;18.10;45.40;;;;;;6136551;23;20214;-83
2023/01/27 07:43:40;;;;;;;1.67;0.65;;;18.10;45.10;;;;;;6137053;23;20143;-82
2023/01/27 07:46:06;;;;;;;1.80;0.70;;;18.20;45.00;;;;;;6163876;23;20222;-82
2023/01/27 07:48:37;;;;;;;1.65;0.50;;;18.20;44.80;;;;;;6163194;23;20172;-83
2023/01/27 07:51:05;;;;;;;2.60;1.00;;;18.20;44.90;;;;;;6136824;23;20140;-82
2023/01/27 07:53:31;;;;;;;2.78;0.70;;;18.20;44.90;;;;;;6136638;23;20174;-82
2023/01/27 07:55:59;;;;;;;1.70;0.73;;;18.30;44.80;;;;;;6114034;23;20132;-83
2023/01/27 07:58:25;;;;;;;0.88;0.60;;;18.30;44.70;;;;;;6113315;23;20287;-82
2023/01/27 08:00:50;;;;;;;1.38;0.75;;;18.30;44.70;;;;;;6114771;23;20147;-82
2023/01/27 08:03:21;;;;;;;1.25;0.65;;;18.30;44.50;;;;;;6138257;23;20139;-82
2023/01/27 08:05:46;;;;;;;1.15;0.70;;;18.30;44.50;;;;;;6114437;23;20578;-81
2023/01/27 08:08:12;;;;;;;1.13;0.70;;;18.30;44.70;;;;;;6138829;23;20272;-82
2023/01/27 08:10:39;;;;;;;1.15;0.90;;;18.30;44.60;;;;;;6137918;23;20464;-82
2023/01/27 08:13:04;;;;;;;1.17;0.80;;;18.30;44.60;;;;;;6138150;23;20171;-82
2023/01/27 08:15:30;;;;;;;0.68;0.63;;;18.30;44.30;;;;;;6114009;23;20159;-83
2023/01/27 08:17:56;;;;;;;1.77;0.50;;;18.30;44.60;;;;;;6137807;23;20578;-82
2023/01/27 08:20:24;;;;;;;0.85;0.60;;;18.40;44.60;;;;;;6113884;23;20136;-82
2023/01/27 08:22:52;;;;;;;2.88;0.90;;;18.40;44.30;;;;;;6113179;23;20466;-83
2023/01/27 08:25:17;;;;;;;1.75;0.50;;;18.30;44.60;;;;;;6113300;23;20143;-82
2023/01/27 08:27:43;;;;;;;0.63;0.50;;;18.30;44.20;;;;;;6137729;23;20143;-82
2023/01/27 08:30:10;;;;;;;2.67;0.50;;;18.30;44.00;;;;;;6136281;23;20195;-83
2023/01/27 08:32:35;;;;;;;0.90;0.60;;;18.40;44.50;;;;;;6112761;23;20238;-82
2023/01/27 08:35:01;;;;;;;0.98;0.60;;;18.40;44.20;;;;;;6163196;23;20634;-82
2023/01/27 08:37:27;;;;;;;0.68;0.60;;;18.40;44.20;;;;;;6113960;23;20167;-82
2023/01/27 08:39:55;;;;;;;1.25;0.50;;;18.30;44.10;;;;;;6114320;23;20148;-83
2023/01/27 08:42:22;;;;;;;0.98;0.50;;;18.40;44.00;;;;;;6138453;23;20143;-83
2023/01/27 08:44:48;;;;;;;1.40;0.60;;;18.40;43.90;;;;;;6138502;23;20566;-82
2023/01/27 08:47:14;;;;;;;0.98;0.70;;;18.40;44.10;;;;;;6140670;23;20142;-82
2023/01/27 08:49:41;;;;;;;2.00;0.60;;;18.40;44.00;;;;;;6166813;23;20195;-83
2023/01/27 08:52:06;;;;;;;1.30;0.60;;;18.40;43.90;;;;;;6115494;23;20175;-82
2023/01/27 08:54:33;;;;;;;1.73;0.50;;;18.40;44.00;;;;;;6141264;23;20132;-83
2023/01/27 08:56:59;;;;;;;1.52;0.70;;;18.50;44.20;;;;;;6141443;23;20191;-83
2023/01/27 08:59:25;;;;;;;0.98;0.70;;;18.40;44.00;;;;;;6115714;23;20139;-82
2023/01/27 09:01:51;;;;;;;1.48;1.05;;;18.40;44.00;;;;;;6114256;23;20136;-82
2023/01/27 09:04:17;;;;;;;1.30;0.70;;;18.40;44.20;;;;;;6090659;23;20143;-82
2023/01/27 09:06:48;;;;;;;0.50;0.50;;;18.40;43.80;;;;;;6140024;23;20202;-82
2023/01/27 09:09:15;;;;;;;3.97;0.70;;;18.40;44.00;;;;;;6093437;23;20152;-81
2023/01/27 09:11:42;;;;;;;6.15;1.20;;;18.40;43.90;;;;;;6090934;23;20490;-82
2023/01/27 09:14:10;;;;;;;12.10;1.50;;;18.40;43.90;;;;;;6115345;23;20192;-82
2023/01/27 09:16:36;;;;;;;9.68;1.15;;;18.50;43.90;;;;;;6138409;23;20240;-83
2023/01/27 09:19:02;;;;;;;17.45;1.50;;;18.40;44.20;;;;;;6091173;23;20154;-83
2023/01/27 09:21:29;;;;;;;9.73;1.10;;;18.40;44.60;;;;;;6093353;23;20150;-82
2023/01/27 09:23:58;;;;;;;11.45;1.10;;;18.40;44.40;;;;;;6116959;23;20152;-82
2023/01/27 09:26:24;;;;;;;3.70;0.82;;;18.50;44.10;;;;;;6114884;23;20638;-82
2023/01/27 09:28:50;;;;;;;5.35;0.88;;;18.50;43.90;;;;;;6115967;23;20124;-82
2023/01/27 09:31:17;;;;;;;3.78;0.95;;;18.40;44.00;;;;;;6118186;23;20139;-82
2023/01/27 09:34:03;;;;;;;4.20;0.77;;;18.50;43.90;;;;;;6142174;23;20155;-82
2023/01/27 09:36:30;;;;;;;2.42;0.82;;;18.50;43.80;;;;;;6139705;23;20124;-82
2023/01/27 09:39:02;;;;;;;1.05;0.70;;;18.50;43.80;;;;;;6091476;23;20151;-82
2023/01/27 09:41:53;;;;;;;0.95;0.50;;;18.50;43.90;;;;;;6091571;23;20166;-82
2023/01/27 09:44:40;;;;;;;2.63;0.80;;;18.50;44.60;;;;;;6137749;23;20494;-83
2023/01/27 09:47:46;;;;;;;3.97;0.65;;;18.60;43.80;;;;;;6139159;23;20151;-83
2023/01/27 09:50:44;;;;;;;7.88;1.40;;;18.50;44.00;;;;;;6141349;23;20473;-83
2023/01/27 09:53:25;;;;;;;5.70;1.13;;;18.50;44.00;;;;;;6145356;23;20167;-84
2023/01/27 09:56:27;;;;;;;8.60;1.23;;;18.50;44.10;;;;;;6139515;23;20220;-84
2023/01/27 09:59:06;;;;;;;14.10;2.05;;;18.50;43.90;;;;;;6165077;23;20150;-84
2023/01/27 10:01:40;;;;;;;15.15;1.40;;;18.50;44.10;;;;;;6115770;23;20157;-84
2023/01/27 10:04:43;;;;;;;13.80;1.50;;;18.50;44.00;;;;;;6090720;23;20578;-83
2023/01/27 10:07:23;;;;;;;8.75;1.20;;;18.50;43.90;;;;;;6121581;23;20151;-82
2023/01/27 10:09:58;;;;;;;13.60;1.70;;;18.50;44.30;;;;;;6164390;23;20132;-81
2023/01/27 10:12:43;;;;;;;16.98;1.85;;;18.50;44.30;;;;;;6092618;23;20175;-81
2023/01/27 10:15:38;;;;;;;12.75;1.65;;;18.50;44.30;;;;;;6117490;23;20217;-82
2023/01/27 10:18:36;;;;;;;14.07;1.70;;;18.50;44.10;;;;;;6144624;23;20138;-82
2023/01/27 10:21:08;;;;;;;12.80;1.40;;;18.60;43.70;;;;;;6140343;23;20128;-82
2023/01/27 10:23:53;;;;;;;13.45;1.13;;;18.60;44.10;;;;;;6114907;23;20158;-83
2023/01/27 10:26:34;;;;;;;8.07;1.20;;;18.60;43.80;;;;;;6142710;23;20139;-82
2023/01/27 10:29:08;;;;;;;7.32;1.00;;;18.60;43.80;;;;;;6118631;23;20131;-82
2023/01/27 10:31:42;;;;;;;7.35;1.20;;;18.70;43.80;;;;;;6116691;23;20208;-82
2023/01/27 10:34:23;;;;;;;10.48;0.98;;;18.70;43.90;;;;;;6165550;23;20135;-83
2023/01/27 10:37:00;;;;;;;7.00;1.10;;;18.70;43.80;;;;;;6119582;23;20147;-83
2023/01/27 10:39:45;;;;;;;4.45;0.82;;;18.70;43.60;;;;;;6112976;23;20482;-82
2023/01/27 10:42:34;;;;;;;5.68;0.95;;;18.70;43.70;;;;;;6116338;23;20158;-82
2023/01/27 10:45:44;;;;;;;13.77;1.23;;;18.70;43.80;;;;;;6120340;23;20138;-83
2023/01/27 10:48:28;;;;;;;7.38;1.30;;;18.70;43.70;;;;;;6065126;23;20164;-82
2023/01/27 10:50:58;;;;;;;8.70;1.08;;;18.80;43.90;;;;;;6079977;23;20149;-82
2023/01/27 10:53:30;;;;;;;6.78;1.00;;;18.70;43.90;;;;;;6103933;23;20239;-84
2023/01/27 10:56:33;;;;;;;11.68;1.30;;;18.70;44.00;;;;;;6080995;23;20137;-83
2023/01/27 10:59:33;;;;;;;12.82;1.27;;;18.70;44.00;;;;;;6080285;23;20228;-82
2023/01/27 11:02:14;;;;;;;11.93;1.50;;;18.70;43.90;;;;;;6087068;23;20148;-82
2023/01/27 11:04:45;;;;;;;11.60;1.45;;;18.70;44.00;;;;;;6101560;23;20163;-83
2023/01/27 11:07:19;;;;;;;9.02;0.98;;;18.70;44.00;;;;;;6080593;23;20252;-83
2023/01/27 11:10:05;;;;;;;5.45;0.80;;;18.80;43.90;;;;;;6081309;23;20147;-83
2023/01/27 11:12:35;;;;;;;11.70;0.82;;;18.80;43.80;;;;;;6104028;23;20636;-83
2023/01/27 11:15:09;;;;;;;6.13;1.10;;;18.80;43.80;;;;;;6052850;23;20275;-83
2023/01/27 11:17:53;;;;;;;6.18;1.10;;;18.80;43.80;;;;;;6057114;23;20231;-84
2023/01/27 11:20:39;;;;;;;9.68;1.00;;;18.80;43.90;;;;;;6138496;23;20135;-81
2023/01/27 11:23:18;;;;;;;10.70;1.35;;;18.80;43.80;;;;;;6117773;23;20209;-83
2023/01/27 11:26:08;;;;;;;8.60;1.23;;;18.80;43.90;;;;;;6108394;23;20467;-81
2023/01/27 11:28:41;;;;;;;14.68;1.52;;;18.80;44.00;;;;;;6135440;23;20566;-79
2023/01/27 11:31:47;;;;;;;6.18;0.95;;;18.80;44.00;;;;;;6156259;23;20139;-80
2023/01/27 11:34:33;;;;;;;4.70;0.80;;;18.80;44.00;;;;;;6117863;23;20139;-82
2023/01/27 11:37:15;;;;;;;6.45;1.13;;;18.80;43.80;;;;;;6155471;23;20584;-80
2023/01/27 11:39:40;;;;;;;11.25;1.40;;;18.80;44.00;;;;;;6155932;23;20147;-80
2023/01/27 11:42:07;;;;;;;4.43;1.05;;;18.80;43.90;;;;;;6155559;23;20417;-80
2023/01/27 11:44:33;;;;;;;13.18;1.15;;;18.80;43.80;;;;;;6129656;23;20171;-81
2023/01/27 11:47:00;;;;;;;8.25;1.25;;;18.80;43.80;;;;;;6130027;23;20188;-79
2023/01/27 11:49:29;;;;;;;10.88;1.30;;;18.80;43.90;;;;;;6105950;23;20480;-80
2023/01/27 11:52:04;;;;;;;8.55;1.00;;;18.80;43.50;;;;;;6129386;23;20163;-81
2023/01/27 11:54:33;;;;;;;5.70;0.60;;;18.80;43.70;;;;;;6107752;23;20158;-80
2023/01/27 11:56:59;;;;;;;7.97;1.10;;;18.80;43.50;;;;;;6130572;23;20147;-79
2023/01/27 11:59:29;;;;;;;12.20;1.55;;;18.80;43.50;;;;;;6155672;23;20131;-80
2023/01/27 12:02:07;;;;;;;9.98;1.27;;;18.90;43.50;;;;;;6129496;23;20136;-81
2023/01/27 12:04:51;;;;;;;12.57;1.13;;;18.80;43.50;;;;;;6155480;23;20140;-80
2023/01/27 12:07:23;;;;;;;9.45;1.15;;;18.80;43.70;;;;;;6155642;23;20586;-80
2023/01/27 12:09:49;;;;;;;8.65;1.05;;;18.80;43.50;;;;;;6155442;23;20218;-80
2023/01/27 12:12:25;;;;;;;8.90;1.00;;;18.90;43.80;;;;;;6155605;23;20251;-80
2023/01/27 12:14:53;;;;;;;6.78;1.25;;;18.80;43.80;;;;;;6129822;23;20633;-79
2023/01/27 12:17:30;;;;;;;10.43;1.00;;;18.80;44.10;;;;;;6129612;23;20136;-80
2023/01/27 12:19:58;;;;;;;9.93;1.08;;;18.90;43.70;;;;;;6155212;23;20218;-80
2023/01/27 12:22:26;;;;;;;5.07;1.05;;;18.80;43.70;;;;;;6129595;23;20147;-80
2023/01/27 12:24:55;;;;;;;8.75;1.10;;;18.80;43.60;;;;;;6155185;23;20136;-80
2023/01/27 12:27:22;;;;;;;10.80;1.17;;;18.80;43.80;;;;;;6128788;23;20135;-80
2023/01/27 12:29:53;;;;;;;12.02;1.15;;;18.80;43.60;;;;;;6154781;23;20195;-80
2023/01/27 12:32:28;;;;;;;14.98;0.90;;;18.80;43.40;;;;;;6129249;23;20174;-80
2023/01/27 12:34:57;;;;;;;7.88;0.80;;;18.80;43.60;;;;;;6131759;23;20166;-80
2023/01/27 12:37:34;;;;;;;10.20;1.23;;;18.70;43.40;;;;;;6156615;23;20448;-80
2023/01/27 12:40:02;;;;;;;4.72;0.80;;;18.80;43.30;;;;;;6157810;23;20136;-80
2023/01/27 12:42:39;;;;;;;10.50;0.90;;;18.80;43.10;;;;;;6132633;23;20222;-80
2023/01/27 12:45:17;;;;;;;8.18;1.17;;;18.80;43.30;;;;;;6158120;23;20140;-80
2023/01/27 12:47:58;;;;;;;7.75;1.08;;;18.90;43.30;;;;;;6131465;23;20151;-79
2023/01/27 12:50:26;;;;;;;3.80;0.60;;;18.80;43.20;;;;;;6108481;23;20163;-78
2023/01/27 12:53:12;;;;;;;2.85;0.60;;;18.80;43.30;;;;;;6157330;23;20314;-78
2023/01/27 12:55:45;;;;;;;3.65;1.00;;;18.80;43.10;;;;;;6157260;23;20567;-79
2023/01/27 12:58:42;;;;;;;5.72;0.73;;;18.80;43.30;;;;;;6157886;23;20132;-79
2023/01/27 13:01:21;;;;;;;3.10;0.50;;;18.80;43.10;;;;;;6157699;23;20154;-79
2023/01/27 13:03:51;;;;;;;3.90;0.80;;;18.80;43.00;;;;;;6157895;23;20139;-78
2023/01/27 13:06:18;;;;;;;2.20;0.70;;;18.70;42.80;;;;;;6158324;23;20141;-79
2023/01/27 13:08:44;;;;;;;5.22;1.23;;;18.80;43.10;;;;;;6157329;23;20163;-79
2023/01/27 13:11:10;;;;;;;6.47;0.70;;;18.80;43.00;;;;;;6131166;23;20187;-78
2023/01/27 13:13:36;;;;;;;4.30;0.80;;;18.70;42.80;;;;;;6157304;23;20234;-79
2023/01/27 13:16:07;;;;;;;4.57;0.60;;;18.80;43.00;;;;;;6131368;23;20140;-80
2023/01/27 13:18:37;;;;;;;3.85;0.70;;;18.80;42.80;;;;;;6131754;23;20136;-79
2023/01/27 13:21:14;;;;;;;6.25;1.00;;;18.80;42.80;;;;;;6157300;23;20633;-79
2023/01/27 13:23:41;;;;;;;6.22;0.60;;;18.80;42.70;;;;;;6157088;23;20182;-79
2023/01/27 13:26:12;;;;;;;3.53;0.70;;;18.80;42.60;;;;;;6107010;23;20163;-79
2023/01/27 13:28:50;;;;;;;3.10;0.60;;;18.70;42.50;;;;;;6131183;23;20147;-80